Time;durP1;ratioP1;P1;durP2;ratioP2;P2;SDS_P1;SDS_P2;PMS_P1;PMS_P2;Temp;Humidity;BMP_temperature;BMP_pressure;BME280_temperature;BME280_humidity;BME280_pressure;Samples;Min_cycle;Max_cycle;Signal;HPM_P1;HPM_P2
2023/08/18 00:01:15;;;;;;;;;;;;;;;;;;5034945;28;19962;-77
2023/08/18 00:03:41;;;;;;;;;;;;;;;;;;5025270;28;19986;-78
2023/08/18 00:06:07;;;;;;;;;;;;;;;;;;5035598;28;19920;-76
2023/08/18 00:08:33;;;;;;;;;;;;;;;;;;5034504;28;20013;-77
2023/08/18 00:10:59;;;;;;;;;;;;;;;;;;5034748;28;19929;-77
2023/08/18 00:13:25;;;;;;;;;;;;;;;;;;5024673;28;19924;-78
2023/08/18 00:15:51;;;;;;;;;;;;;;;;;;5019031;28;19921;-77
2023/08/18 00:18:17;;;;;;;;;;;;;;;;;;5030512;28;20011;-77
2023/08/18 00:20:43;;;;;;;;;;;;;;;;;;5033497;28;19925;-77
2023/08/18 00:23:09;;;;;;;;;;;;;;;;;;5032918;28;19928;-77
2023/08/18 00:25:35;;;;;;;;;;;;;;;;;;5034561;28;20011;-77
2023/08/18 00:28:00;;;;;;;;;;;;;;;;;;5034309;28;19920;-77
2023/08/18 00:30:26;;;;;;;;;;;;;;;;;;5034060;28;20461;-77
2023/08/18 00:32:52;;;;;;;;;;;;;;;;;;5034845;28;20333;-77
2023/08/18 00:35:18;;;;;;;;;;;;;;;;;;5034954;28;19986;-77
2023/08/18 00:37:44;;;;;;;;;;;;;;;;;;5034329;28;20349;-77
2023/08/18 00:40:10;;;;;;;;;;;;;;;;;;5033903;28;19955;-77
2023/08/18 00:42:36;;;;;;;;;;;;;;;;;;5031040;28;19931;-77
2023/08/18 00:45:02;;;;;;;;;;;;;;;;;;5029909;28;19921;-77
2023/08/18 00:47:28;;;;;;;;;;;;;;;;;;5034563;28;19928;-77
2023/08/18 00:49:54;;;;;;;;;;;;;;;;;;5034887;28;19925;-77
2023/08/18 00:52:20;;;;;;;;;;;;;;;;;;5034264;28;19942;-77
2023/08/18 00:54:46;;;;;;;;;;;;;;;;;;5033860;28;19924;-77
2023/08/18 00:57:12;;;;;;;;;;;;;;;;;;5033852;28;19920;-77
2023/08/18 00:59:38;;;;;;;;;;;;;;;;;;5026538;28;19921;-77
2023/08/18 01:02:04;;;;;;;;;;;;;;;;;;5032724;28;19928;-77
2023/08/18 01:04:30;;;;;;;;;;;;;;;;;;5034462;28;20004;-77
2023/08/18 01:06:56;;;;;;;;;;;;;;;;;;5025187;28;19921;-77
2023/08/18 01:09:22;;;;;;;;;;;;;;;;;;5034512;28;19921;-78
2023/08/18 01:11:48;;;;;;;;;;;;;;;;;;5033353;28;20412;-77
2023/08/18 01:14:14;;;;;;;;;;;;;;;;;;5034301;28;20047;-77
2023/08/18 01:16:40;;;;;;;;;;;;;;;;;;5029106;28;20331;-76
2023/08/18 01:19:06;;;;;;;;;;;;;;;;;;5034449;28;19921;-77
2023/08/18 01:21:32;;;;;;;;;;;;;;;;;;5033166;28;19927;-76
2023/08/18 01:23:58;;;;;;;;;;;;;;;;;;5004659;28;19975;-76
2023/08/18 01:26:24;;;;;;;;;;;;;;;;;;5014989;28;19921;-77
2023/08/18 01:28:50;;;;;;;;;;;;;;;;;;5026127;28;19928;-77
2023/08/18 01:31:16;;;;;;;;;;;;;;;;;;5034121;28;19920;-77
2023/08/18 01:33:42;;;;;;;;;;;;;;;;;;5015007;28;20400;-77
2023/08/18 01:36:08;;;;;;;;;;;;;;;;;;5021921;28;20008;-77
2023/08/18 01:38:34;;;;;;;;;;;;;;;;;;5033932;28;20358;-77
2023/08/18 01:41:00;;;;;;;;;;;;;;;;;;5025985;28;20362;-77
2023/08/18 01:43:27;;;;;;;;;;;;;;;;;;5013669;28;20323;-76
2023/08/18 01:45:53;;;;;;;;;;;;;;;;;;5015601;28;20354;-77
2023/08/18 01:48:19;;;;;;;;;;;;;;;;;;5033801;28;19921;-77
2023/08/18 01:50:45;;;;;;;;;;;;;;;;;;5029650;28;19932;-77
2023/08/18 01:53:11;;;;;;;;;;;;;;;;;;5014667;28;20523;-76
2023/08/18 01:55:37;;;;;;;;;;;;;;;;;;5016880;28;19920;-77
2023/08/18 01:58:03;;;;;;;;;;;;;;;;;;5027164;28;20278;-77
2023/08/18 02:00:29;;;;;;;;;;;;;;;;;;5014236;28;19921;-77
2023/08/18 02:02:55;;;;;;;;;;;;;;;;;;5013739;28;19931;-77
2023/08/18 02:05:21;;;;;;;;;;;;;;;;;;5014452;28;19921;-77
2023/08/18 02:07:47;;;;;;;;;;;;;;;;;;5015631;28;19921;-77
2023/08/18 02:10:12;;;;;;;;;;;;;;;;;;5016961;28;19921;-77
2023/08/18 02:12:38;;;;;;;;;;;;;;;;;;5030569;28;19932;-77
2023/08/18 02:15:04;;;;;;;;;;;;;;;;;;5013765;28;19974;-77
2023/08/18 02:17:30;;;;;;;;;;;;;;;;;;5034069;28;19920;-76
2023/08/18 02:20:00;;;;;;;;;;;;;;;;;;5036748;28;19928;-77
2023/08/18 02:22:26;;;;;;;;;;;;;;;;;;5037809;28;19970;-76
2023/08/18 02:24:51;;;;;;;;;;;;;;;;;;5037212;28;20026;-77
2023/08/18 02:27:17;;;;;;;;;;;;;;;;;;5036016;28;19921;-77
2023/08/18 02:29:43;;;;;;;;;;;;;;;;;;5036866;28;19928;-77
2023/08/18 02:32:09;;;;;;;;;;;;;;;;;;5030786;28;19975;-77
2023/08/18 02:34:35;;;;;;;;;;;;;;;;;;5017696;28;19932;-76
2023/08/18 02:37:01;;;;;;;;;;;;;;;;;;5025919;28;19927;-77
2023/08/18 02:39:27;;;;;;;;;;;;;;;;;;5037469;28;19920;-77
2023/08/18 02:41:54;;;;;;;;;;;;;;;;;;5036558;28;19921;-77
2023/08/18 02:44:20;;;;;;;;;;;;;;;;;;5033864;28;19927;-76
2023/08/18 02:46:47;;;;;;;;;;;;;;;;;;5016779;28;20346;-77
2023/08/18 02:49:13;;;;;;;;;;;;;;;;;;5017543;28;19921;-76
2023/08/18 02:51:39;;;;;;;;;;;;;;;;;;5017988;28;19921;-77
2023/08/18 02:54:05;;;;;;;;;;;;;;;;;;5034656;28;19925;-77
2023/08/18 02:56:34;;;;;;;;;;;;;;;;;;5037327;28;19920;-77
2023/08/18 02:59:00;;;;;;;;;;;;;;;;;;5015878;28;19921;-76
2023/08/18 03:01:26;;;;;;;;;;;;;;;;;;5017024;28;19921;-76
2023/08/18 03:03:52;;;;;;;;;;;;;;;;;;5036374;28;19921;-77
2023/08/18 03:06:18;;;;;;;;;;;;;;;;;;5053701;28;20025;-76
2023/08/18 03:08:43;;;;;;;;;;;;;;;;;;5036591;28;19921;-77
2023/08/18 03:11:09;;;;;;;;;;;;;;;;;;5036792;28;19925;-76
2023/08/18 03:13:35;;;;;;;;;;;;;;;;;;5025327;28;19932;-76
2023/08/18 03:16:03;;;;;;;;;;;;;;;;;;5018702;28;20010;-76
2023/08/18 03:18:29;;;;;;;;;;;;;;;;;;5021037;28;20337;-77
2023/08/18 03:20:56;;;;;;;;;;;;;;;;;;5026941;28;19925;-77
2023/08/18 03:23:22;;;;;;;;;;;;;;;;;;5019202;28;20355;-77
2023/08/18 03:25:48;;;;;;;;;;;;;;;;;;5026585;28;20011;-77
2023/08/18 03:28:14;;;;;;;;;;;;;;;;;;5026808;28;19929;-76
2023/08/18 03:30:40;;;;;;;;;;;;;;;;;;5025934;28;19928;-77
2023/08/18 03:33:06;;;;;;;;;;;;;;;;;;5025693;28;20493;-77
2023/08/18 03:35:35;;;;;;;;;;;;;;;;;;5032852;28;19932;-77
2023/08/18 03:38:01;;;;;;;;;;;;;;;;;;5031644;28;19959;-77
2023/08/18 03:40:27;;;;;;;;;;;;;;;;;;5032316;28;19964;-77
2023/08/18 03:42:52;;;;;;;;;;;;;;;;;;5022059;28;19925;-77
2023/08/18 03:45:18;;;;;;;;;;;;;;;;;;5030469;28;20007;-77
2023/08/18 03:47:45;;;;;;;;;;;;;;;;;;5032091;28;20346;-76
2023/08/18 03:50:11;;;;;;;;;;;;;;;;;;5032221;28;19925;-77
2023/08/18 03:52:37;;;;;;;;;;;;;;;;;;5021809;28;19925;-76
2023/08/18 03:55:03;;;;;;;;;;;;;;;;;;5032092;28;20008;-77
2023/08/18 03:57:29;;;;;;;;;;;;;;;;;;5031545;28;19921;-77
2023/08/18 03:59:55;;;;;;;;;;;;;;;;;;5031733;28;20359;-77
2023/08/18 04:02:21;;;;;;;;;;;;;;;;;;5024862;28;20393;-77
2023/08/18 04:04:47;;;;;;;;;;;;;;;;;;5012713;28;19984;-77
2023/08/18 04:07:13;;;;;;;;;;;;;;;;;;5028560;28;19925;-77
2023/08/18 04:09:39;;;;;;;;;;;;;;;;;;5027000;28;19921;-77
2023/08/18 04:12:05;;;;;;;;;;;;;;;;;;5011732;28;20460;-77
2023/08/18 04:14:31;;;;;;;;;;;;;;;;;;5012527;28;20275;-77
2023/08/18 04:16:57;;;;;;;;;;;;;;;;;;5014850;28;19921;-77
2023/08/18 04:19:23;;;;;;;;;;;;;;;;;;5031781;28;19921;-76
2023/08/18 04:21:49;;;;;;;;;;;;;;;;;;5019148;28;19972;-76
2023/08/18 04:24:15;;;;;;;;;;;;;;;;;;5011651;28;20441;-77
2023/08/18 04:26:41;;;;;;;;;;;;;;;;;;5012408;28;20358;-77
2023/08/18 04:29:06;;;;;;;;;;;;;;;;;;5011422;28;19944;-77
2023/08/18 04:31:32;;;;;;;;;;;;;;;;;;5019227;28;19967;-77
2023/08/18 04:33:58;;;;;;;;;;;;;;;;;;5023770;28;19929;-77
2023/08/18 04:36:24;;;;;;;;;;;;;;;;;;5012487;28;19967;-77
2023/08/18 04:38:50;;;;;;;;;;;;;;;;;;5012061;28;20367;-77
2023/08/18 04:41:16;;;;;;;;;;;;;;;;;;5030302;28;20290;-77
2023/08/18 04:43:42;;;;;;;;;;;;;;;;;;5014161;28;19991;-77
2023/08/18 04:46:08;;;;;;;;;;;;;;;;;;5012964;28;19921;-77
2023/08/18 04:48:34;;;;;;;;;;;;;;;;;;5031202;28;19921;-77
2023/08/18 04:51:00;;;;;;;;;;;;;;;;;;5031357;28;20347;-77
2023/08/18 04:53:26;;;;;;;;;;;;;;;;;;5031785;28;20034;-76
2023/08/18 04:55:52;;;;;;;;;;;;;;;;;;5031663;28;19921;-76
2023/08/18 04:58:18;;;;;;;;;;;;;;;;;;5029404;28;20354;-77
2023/08/18 05:00:44;;;;;;;;;;;;;;;;;;5014003;28;19921;-76
2023/08/18 05:03:10;;;;;;;;;;;;;;;;;;5024724;28;20366;-77
2023/08/18 05:05:36;;;;;;;;;;;;;;;;;;5029512;28;19921;-77
2023/08/18 05:08:02;;;;;;;;;;;;;;;;;;5030996;28;19943;-76
2023/08/18 05:10:28;;;;;;;;;;;;;;;;;;5031067;28;19921;-77
2023/08/18 05:12:54;;;;;;;;;;;;;;;;;;5030726;28;19932;-77
2023/08/18 05:15:21;;;;;;;;;;;;;;;;;;5030809;28;20355;-77
2023/08/18 05:17:48;;;;;;;;;;;;;;;;;;5031599;28;19921;-76
2023/08/18 05:20:14;;;;;;;;;;;;;;;;;;5030461;28;20318;-77
2023/08/18 05:22:40;;;;;;;;;;;;;;;;;;5029540;28;19921;-77
2023/08/18 05:25:07;;;;;;;;;;;;;;;;;;5030211;28;19928;-77
2023/08/18 05:27:33;;;;;;;;;;;;;;;;;;5025546;28;19921;-77
2023/08/18 05:29:59;;;;;;;;;;;;;;;;;;5029473;28;19928;-77
2023/08/18 05:32:25;;;;;;;;;;;;;;;;;;5031050;28;19925;-77
2023/08/18 05:34:51;;;;;;;;;;;;;;;;;;5031373;28;20024;-77
2023/08/18 05:37:17;;;;;;;;;;;;;;;;;;5023405;28;20011;-77
2023/08/18 05:39:43;;;;;;;;;;;;;;;;;;5031068;28;19921;-77
2023/08/18 05:42:10;;;;;;;;;;;;;;;;;;5013799;28;19968;-76
2023/08/18 05:44:36;;;;;;;;;;;;;;;;;;5026409;28;19924;-76
2023/08/18 05:47:03;;;;;;;;;;;;;;;;;;5025220;28;20028;-77
2023/08/18 05:49:29;;;;;;;;;;;;;;;;;;5011465;28;19971;-77
2023/08/18 05:51:55;;;;;;;;;;;;;;;;;;5018584;28;19924;-77
2023/08/18 05:54:21;;;;;;;;;;;;;;;;;;5033415;28;19983;-77
2023/08/18 05:56:47;;;;;;;;;;;;;;;;;;5034664;28;19921;-77
2023/08/18 05:59:13;;;;;;;;;;;;;;;;;;5034163;28;19967;-77
2023/08/18 06:01:39;;;;;;;;;;;;;;;;;;5032515;28;20367;-76
2023/08/18 06:04:05;;;;;;;;;;;;;;;;;;5033787;28;19925;-77
2023/08/18 06:06:32;;;;;;;;;;;;;;;;;;5033288;28;20336;-77
2023/08/18 06:08:58;;;;;;;;;;;;;;;;;;5014840;28;19921;-76
2023/08/18 06:11:24;;;;;;;;;;;;;;;;;;5014663;28;19922;-76
2023/08/18 06:13:50;;;;;;;;;;;;;;;;;;5014274;28;19992;-76
2023/08/18 06:16:16;;;;;;;;;;;;;;;;;;5013712;28;19928;-76
2023/08/18 06:18:42;;;;;;;;;;;;;;;;;;5014794;28;19921;-77
2023/08/18 06:21:08;;;;;;;;;;;;;;;;;;5018635;28;19976;-77
2023/08/18 06:23:34;;;;;;;;;;;;;;;;;;5029343;28;19928;-77
2023/08/18 06:26:00;;;;;;;;;;;;;;;;;;5034091;28;19921;-76
2023/08/18 06:28:26;;;;;;;;;;;;;;;;;;5033128;28;20016;-76
2023/08/18 06:30:52;;;;;;;;;;;;;;;;;;5033742;28;20389;-76
2023/08/18 06:33:18;;;;;;;;;;;;;;;;;;5033351;28;20362;-76
2023/08/18 06:35:44;;;;;;;;;;;;;;;;;;5034275;28;19970;-76
2023/08/18 06:38:10;;;;;;;;;;;;;;;;;;5030282;28;19929;-77
2023/08/18 06:40:36;;;;;;;;;;;;;;;;;;5017108;28;20015;-67
2023/08/18 06:43:02;;;;;;;;;;;;;;;;;;5034314;28;19925;-73
2023/08/18 06:45:28;;;;;;;;;;;;;;;;;;5032613;28;19927;-75
2023/08/18 06:47:54;;;;;;;;;;;;;;;;;;5019990;28;19925;-75
2023/08/18 06:50:20;;;;;;;;;;;;;;;;;;5030044;28;19943;-74
2023/08/18 06:52:47;;;;;;;;;;;;;;;;;;5034046;28;19972;-75
2023/08/18 06:55:14;;;;;;;;;;;;;;;;;;5032853;28;20382;-75
2023/08/18 06:57:41;;;;;;;;;;;;;;;;;;5025169;28;19964;-75
2023/08/18 07:00:09;;;;;;;;;;;;;;;;;;5012912;28;19929;-78
2023/08/18 07:02:35;;;;;;;;;;;;;;;;;;5013581;28;20001;-74
2023/08/18 07:05:03;;;;;;;;;;;;;;;;;;5029347;28;19968;-76
2023/08/18 07:07:29;;;;;;;;;;;;;;;;;;5029362;28;20024;-75
2023/08/18 07:09:55;;;;;;;;;;;;;;;;;;5019885;28;20024;-74
2023/08/18 07:12:21;;;;;;;;;;;;;;;;;;5032072;28;19921;-76
2023/08/18 07:14:47;;;;;;;;;;;;;;;;;;5031645;28;19921;-74
2023/08/18 07:17:13;;;;;;;;;;;;;;;;;;5032501;28;20270;-75
2023/08/18 07:19:39;;;;;;;;;;;;;;;;;;5033550;28;19921;-74
2023/08/18 07:22:05;;;;;;;;;;;;;;;;;;5027206;28;20018;-75
2023/08/18 07:24:32;;;;;;;;;;;;;;;;;;5032075;28;19921;-74
2023/08/18 07:26:58;;;;;;;;;;;;;;;;;;5031905;28;20401;-69
2023/08/18 07:29:24;;;;;;;;;;;;;;;;;;5033430;28;19921;-72
2023/08/18 07:31:50;;;;;;;;;;;;;;;;;;5029109;28;19921;-68
2023/08/18 07:34:16;;;;;;;;;;;;;;;;;;5014520;28;19932;-65
2023/08/18 07:36:42;;;;;;;;;;;;;;;;;;5016082;28;19922;-64
2023/08/18 07:39:10;;;;;;;;;;;;;;;;;;5020349;28;19922;-64
2023/08/18 07:41:36;;;;;;;;;;;;;;;;;;5013829;28;19968;-65
2023/08/18 07:44:02;;;;;;;;;;;;;;;;;;5013478;28;19975;-64
2023/08/18 07:46:29;;;;;;;;;;;;;;;;;;5021573;28;19929;-66
2023/08/18 07:48:55;;;;;;;;;;;;;;;;;;5032713;28;19979;-67
2023/08/18 07:51:21;;;;;;;;;;;;;;;;;;5023398;28;19924;-66
2023/08/18 07:53:47;;;;;;;;;;;;;;;;;;5025555;28;19921;-66
2023/08/18 07:56:13;;;;;;;;;;;;;;;;;;5033284;28;19928;-68
2023/08/18 07:58:39;;;;;;;;;;;;;;;;;;5025303;28;19990;-66
2023/08/18 08:01:05;;;;;;;;;;;;;;;;;;5015853;28;20238;-68
2023/08/18 08:03:31;;;;;;;;;;;;;;;;;;5013338;28;19922;-67
2023/08/18 08:05:57;;;;;;;;;;;;;;;;;;5019001;28;20000;-68
2023/08/18 08:08:23;;;;;;;;;;;;;;;;;;5019918;28;19925;-67
2023/08/18 08:10:49;;;;;;;;;;;;;;;;;;5024889;28;19925;-66
2023/08/18 08:13:15;;;;;;;;;;;;;;;;;;5015049;28;19935;-66
2023/08/18 08:15:45;;;;;;;;;;;;;;;;;;5021400;28;19964;-77
2023/08/18 08:18:13;;;;;;;;;;;;;;;;;;5030421;28;19921;-75
2023/08/18 08:20:39;;;;;;;;;;;;;;;;;;5032650;28;19929;-76
2023/08/18 08:23:05;;;;;;;;;;;;;;;;;;5034154;28;19932;-76
2023/08/18 08:25:31;;;;;;;;;;;;;;;;;;5033812;28;19921;-75
2023/08/18 08:27:58;;;;;;;;;;;;;;;;;;5031017;28;20011;-75
2023/08/18 08:30:24;;;;;;;;;;;;;;;;;;5020089;28;19928;-74
2023/08/18 08:32:50;;;;;;;;;;;;;;;;;;5034408;28;19920;-74
2023/08/18 08:35:16;;;;;;;;;;;;;;;;;;5023658;28;19927;-74
2023/08/18 08:37:42;;;;;;;;;;;;;;;;;;5027412;28;19964;-75
2023/08/18 08:40:10;;;;;;;;;;;;;;;;;;5034078;28;19921;-74
2023/08/18 08:42:36;;;;;;;;;;;;;;;;;;5028741;28;19928;-75
2023/08/18 08:45:02;;;;;;;;;;;;;;;;;;5033349;28;19925;-75
2023/08/18 08:47:28;;;;;;;;;;;;;;;;;;5031668;28;19921;-74
2023/08/18 08:49:54;;;;;;;;;;;;;;;;;;5021026;28;20424;-77
2023/08/18 08:52:20;;;;;;;;;;;;;;;;;;5021296;28;20362;-74
2023/08/18 08:54:46;;;;;;;;;;;;;;;;;;5033312;28;20333;-75
2023/08/18 08:57:13;;;;;;;;;;;;;;;;;;5031859;28;19924;-75
2023/08/18 08:59:39;;;;;;;;;;;;;;;;;;5031725;28;19924;-76
2023/08/18 09:02:05;;;;;;;;;;;;;;;;;;5027650;28;20004;-75
2023/08/18 09:04:31;;;;;;;;;;;;;;;;;;5014791;28;19921;-75
2023/08/18 09:06:57;;;;;;;;;;;;;;;;;;5016307;28;19996;-75
2023/08/18 09:09:23;;;;;;;;;;;;;;;;;;5014454;28;20282;-78
2023/08/18 09:11:49;;;;;;;;;;;;;;;;;;5014088;28;19921;-74
2023/08/18 09:14:15;;;;;;;;;;;;;;;;;;5014489;28;20354;-74
2023/08/18 09:16:42;;;;;;;;;;;;;;;;;;5031252;28;20270;-77
2023/08/18 09:19:08;;;;;;;;;;;;;;;;;;5034226;28;20385;-77
2023/08/18 09:21:34;;;;;;;;;;;;;;;;;;5012421;28;19921;-78
2023/08/18 09:24:00;;;;;;;;;;;;;;;;;;5029433;28;19921;-77
2023/08/18 09:26:25;;;;;;;;;;;;;;;;;;5030491;28;19968;-80
2023/08/18 09:28:51;;;;;;;;;;;;;;;;;;5018628;28;19944;-75
2023/08/18 09:31:17;;;;;;;;;;;;;;;;;;5010688;28;19999;-78
2023/08/18 09:33:43;;;;;;;;;;;;;;;;;;5010577;28;19929;-74
2023/08/18 09:36:10;;;;;;;;;;;;;;;;;;5013949;28;19928;-75
2023/08/18 09:38:36;;;;;;;;;;;;;;;;;;5010616;28;19976;-76
2023/08/18 09:41:03;;;;;;;;;;;;;;;;;;5011444;28;20342;-76
2023/08/18 09:43:29;;;;;;;;;;;;;;;;;;5027254;28;19921;-79
2023/08/18 09:45:55;;;;;;;;;;;;;;;;;;5012637;28;19921;-76
2023/08/18 09:48:20;;;;;;;;;;;;;;;;;;5027561;28;19992;-76
2023/08/18 09:50:47;;;;;;;;;;;;;;;;;;5030505;28;20024;-77
2023/08/18 09:53:13;;;;;;;;;;;;;;;;;;5030543;28;20374;-76
2023/08/18 09:55:38;;;;;;;;;;;;;;;;;;5030287;28;19928;-76
2023/08/18 09:58:04;;;;;;;;;;;;;;;;;;5030046;28;19921;-76
2023/08/18 10:00:31;;;;;;;;;;;;;;;;;;5030104;28;19921;-80
2023/08/18 10:02:56;;;;;;;;;;;;;;;;;;5030437;28;19921;-75
2023/08/18 10:05:23;;;;;;;;;;;;;;;;;;5030907;28;19920;-76
2023/08/18 10:07:49;;;;;;;;;;;;;;;;;;5027877;28;19921;-76
2023/08/18 10:10:15;;;;;;;;;;;;;;;;;;5030331;28;19925;-76
2023/08/18 10:12:41;;;;;;;;;;;;;;;;;;5029934;28;19921;-76
2023/08/18 10:15:07;;;;;;;;;;;;;;;;;;5020150;28;20286;-76
2023/08/18 10:17:33;;;;;;;;;;;;;;;;;;5015019;28;19944;-79
2023/08/18 10:20:00;;;;;;;;;;;;;;;;;;5030903;28;19921;-76
2023/08/18 10:22:26;;;;;;;;;;;;;;;;;;5030124;28;19970;-76
2023/08/18 10:24:52;;;;;;;;;;;;;;;;;;5030173;28;20016;-76
2023/08/18 10:27:18;;;;;;;;;;;;;;;;;;5030408;28;19921;-75
2023/08/18 10:29:44;;;;;;;;;;;;;;;;;;5029861;28;19928;-76
2023/08/18 10:32:10;;;;;;;;;;;;;;;;;;5027430;28;20023;-76
2023/08/18 10:34:36;;;;;;;;;;;;;;;;;;5013374;28;19952;-79
2023/08/18 10:37:03;;;;;;;;;;;;;;;;;;5020399;28;19921;-76
2023/08/18 10:39:36;;;;;;;;;;;;;;;;;;5030881;28;19975;-76
2023/08/18 10:42:02;;;;;;;;;;;;;;;;;;5032892;28;19995;-76
2023/08/18 10:44:28;;;;;;;;;;;;;;;;;;5033579;28;20354;-76
2023/08/18 10:46:53;;;;;;;;;;;;;;;;;;5033017;28;20318;-76
2023/08/18 10:49:19;;;;;;;;;;;;;;;;;;5034064;28;19921;-76
2023/08/18 10:51:45;;;;;;;;;;;;;;;;;;5032561;28;19986;-76
2023/08/18 10:54:11;;;;;;;;;;;;;;;;;;5033264;28;19925;-75
2023/08/18 10:56:37;;;;;;;;;;;;;;;;;;5007578;28;19921;-79
2023/08/18 10:59:04;;;;;;;;;;;;;;;;;;5032415;28;19925;-78
2023/08/18 11:01:30;;;;;;;;;;;;;;;;;;5029117;28;19922;-76
2023/08/18 11:03:56;;;;;;;;;;;;;;;;;;5023655;28;20439;-76
2023/08/18 11:06:26;;;;;;;;;;;;;;;;;;5019989;28;20313;-74
2023/08/18 11:08:52;;;;;;;;;;;;;;;;;;5032874;28;20022;-77
2023/08/18 11:11:18;;;;;;;;;;;;;;;;;;5033454;28;19980;-81
2023/08/18 11:13:44;;;;;;;;;;;;;;;;;;5032212;28;19921;-80
2023/08/18 11:16:10;;;;;;;;;;;;;;;;;;5032957;28;19921;-81
2023/08/18 11:18:36;;;;;;;;;;;;;;;;;;5018473;28;19963;-77
2023/08/18 11:21:03;;;;;;;;;;;;;;;;;;5015023;28;19922;-73
2023/08/18 11:23:29;;;;;;;;;;;;;;;;;;5025432;28;19921;-72
2023/08/18 11:25:55;;;;;;;;;;;;;;;;;;5032121;28;19921;-80
2023/08/18 11:28:21;;;;;;;;;;;;;;;;;;5015433;28;19921;-77
2023/08/18 11:30:47;;;;;;;;;;;;;;;;;;5011400;28;19967;-81
2023/08/18 11:33:13;;;;;;;;;;;;;;;;;;5022399;28;19964;-81
2023/08/18 11:35:39;;;;;;;;;;;;;;;;;;5032062;28;19946;-82
2023/08/18 11:38:05;;;;;;;;;;;;;;;;;;5031640;28;19925;-81
2023/08/18 11:40:31;;;;;;;;;;;;;;;;;;5016314;28;20256;-82
2023/08/18 11:42:57;;;;;;;;;;;;;;;;;;5031434;28;19928;-79
2023/08/18 11:45:23;;;;;;;;;;;;;;;;;;5032481;28;20487;-76
2023/08/18 11:47:49;;;;;;;;;;;;;;;;;;5031309;28;19928;-78
2023/08/18 11:50:21;;;;;;;;;;;;;;;;;;5022204;28;19932;-80
2023/08/18 11:52:47;;;;;;;;;;;;;;;;;;5019908;28;19960;-79
2023/08/18 11:55:13;;;;;;;;;;;;;;;;;;5012880;28;19921;-79
2023/08/18 11:57:45;;;;;;;;;;;;;;;;;;5045252;28;20282;-79
2023/08/18 12:00:13;;;;;;;;;;;;;;;;;;5050151;28;19921;-79
2023/08/18 12:02:38;;;;;;;;;;;;;;;;;;5035162;28;20385;-79
2023/08/18 12:05:05;;;;;;;;;;;;;;;;;;5051940;28;19917;-79
2023/08/18 12:07:30;;;;;;;;;;;;;;;;;;5039088;28;19921;-79
2023/08/18 12:09:56;;;;;;;;;;;;;;;;;;5032001;28;19927;-79
2023/08/18 12:12:22;;;;;;;;;;;;;;;;;;5029244;28;19929;-77
2023/08/18 12:14:48;;;;;;;;;;;;;;;;;;5011269;28;19945;-79
2023/08/18 12:17:14;;;;;;;;;;;;;;;;;;5010865;28;19921;-79
2023/08/18 12:19:40;;;;;;;;;;;;;;;;;;5012081;28;19928;-79
2023/08/18 12:22:06;;;;;;;;;;;;;;;;;;5018746;28;19917;-79
2023/08/18 12:24:32;;;;;;;;;;;;;;;;;;5012072;28;20372;-79
2023/08/18 12:26:59;;;;;;;;;;;;;;;;;;5010924;28;20367;-78
2023/08/18 12:29:25;;;;;;;;;;;;;;;;;;5011849;28;19925;-79
2023/08/18 12:31:51;;;;;;;;;;;;;;;;;;5012850;28;19975;-79
2023/08/18 12:34:17;;;;;;;;;;;;;;;;;;5029816;28;20270;-77
2023/08/18 12:36:43;;;;;;;;;;;;;;;;;;5015358;28;19947;-83
2023/08/18 12:39:09;;;;;;;;;;;;;;;;;;5050017;28;20756;-78
2023/08/18 12:41:35;;;;;;;;;;;;;;;;;;5034791;28;20011;-78
2023/08/18 12:44:02;;;;;;;;;;;;;;;;;;5030375;28;19983;-78
2023/08/18 12:46:28;;;;;;;;;;;;;;;;;;5031602;28;19921;-77
2023/08/18 12:48:54;;;;;;;;;;;;;;;;;;5030804;28;19925;-79
2023/08/18 12:51:20;;;;;;;;;;;;;;;;;;5030807;28;19921;-78
2023/08/18 12:53:46;;;;;;;;;;;;;;;;;;5015044;28;19925;-78
2023/08/18 12:56:12;;;;;;;;;;;;;;;;;;5031323;28;20368;-80
2023/08/18 12:58:38;;;;;;;;;;;;;;;;;;5030508;28;19920;-78
2023/08/18 13:01:07;;;;;;;;;;;;;;;;;;5026087;28;20393;-78
2023/08/18 13:03:33;;;;;;;;;;;;;;;;;;5011771;28;19921;-78
2023/08/18 13:05:59;;;;;;;;;;;;;;;;;;5011567;28;19921;-78
2023/08/18 13:08:25;;;;;;;;;;;;;;;;;;5011970;28;19921;-78
2023/08/18 13:10:52;;;;;;;;;;;;;;;;;;5017074;28;19928;-82
2023/08/18 13:13:18;;;;;;;;;;;;;;;;;;5030337;28;20004;-78
2023/08/18 13:15:44;;;;;;;;;;;;;;;;;;5042105;28;20588;-79
2023/08/18 13:18:09;;;;;;;;;;;;;;;;;;5023351;28;20059;-79
2023/08/18 13:20:36;;;;;;;;;;;;;;;;;;5019391;28;19925;-79
2023/08/18 13:23:03;;;;;;;;;;;;;;;;;;5032774;28;19920;-79
2023/08/18 13:25:29;;;;;;;;;;;;;;;;;;5013471;28;19996;-80
2023/08/18 13:27:55;;;;;;;;;;;;;;;;;;5025817;28;19928;-81
2023/08/18 13:30:21;;;;;;;;;;;;;;;;;;5016677;28;19979;-79
2023/08/18 13:32:47;;;;;;;;;;;;;;;;;;5026189;28;19974;-79
2023/08/18 13:35:13;;;;;;;;;;;;;;;;;;5023966;28;19952;-79
2023/08/18 13:37:39;;;;;;;;;;;;;;;;;;5012161;28;19921;-80
2023/08/18 13:40:05;;;;;;;;;;;;;;;;;;5026250;28;20416;-79
2023/08/18 13:42:31;;;;;;;;;;;;;;;;;;5025962;28;19976;-79
2023/08/18 13:44:57;;;;;;;;;;;;;;;;;;5014895;28;20015;-80
2023/08/18 13:47:23;;;;;;;;;;;;;;;;;;5033045;28;19928;-80
2023/08/18 13:49:49;;;;;;;;;;;;;;;;;;5016488;28;19953;-80
2023/08/18 13:52:16;;;;;;;;;;;;;;;;;;5026395;28;20409;-79
2023/08/18 13:54:42;;;;;;;;;;;;;;;;;;5019303;28;19928;-79
2023/08/18 13:57:08;;;;;;;;;;;;;;;;;;5016965;28;19921;-79
2023/08/18 13:59:34;;;;;;;;;;;;;;;;;;5013425;28;19963;-79
2023/08/18 14:02:00;;;;;;;;;;;;;;;;;;5025498;28;20359;-79
2023/08/18 14:04:26;;;;;;;;;;;;;;;;;;5033651;28;20381;-79
2023/08/18 14:06:52;;;;;;;;;;;;;;;;;;5033627;28;19990;-80
2023/08/18 14:09:18;;;;;;;;;;;;;;;;;;5032426;28;20501;-82
2023/08/18 14:11:44;;;;;;;;;;;;;;;;;;5033203;28;19920;-80
2023/08/18 14:14:10;;;;;;;;;;;;;;;;;;5034335;28;19921;-78
2023/08/18 14:16:36;;;;;;;;;;;;;;;;;;5035366;28;19928;-78
2023/08/18 14:19:02;;;;;;;;;;;;;;;;;;5022389;28;20022;-79
2023/08/18 14:21:28;;;;;;;;;;;;;;;;;;5025031;28;20282;-81
2023/08/18 14:23:54;;;;;;;;;;;;;;;;;;5032930;28;19924;-78
2023/08/18 14:26:20;;;;;;;;;;;;;;;;;;5036922;28;19923;-82
2023/08/18 14:28:46;;;;;;;;;;;;;;;;;;5036707;28;19989;-81
2023/08/18 14:31:12;;;;;;;;;;;;;;;;;;5035382;28;19928;-80
2023/08/18 14:33:38;;;;;;;;;;;;;;;;;;5033304;28;19920;-78
2023/08/18 14:36:04;;;;;;;;;;;;;;;;;;5023686;28;19970;-79
2023/08/18 14:38:30;;;;;;;;;;;;;;;;;;5036268;28;19921;-78
2023/08/18 14:40:56;;;;;;;;;;;;;;;;;;5034577;28;20461;-79
2023/08/18 14:43:22;;;;;;;;;;;;;;;;;;5033113;28;19924;-78
2023/08/18 14:45:48;;;;;;;;;;;;;;;;;;5028278;28;19950;-78
2023/08/18 14:48:14;;;;;;;;;;;;;;;;;;5002449;28;19925;-78
2023/08/18 14:50:40;;;;;;;;;;;;;;;;;;5029598;28;19932;-79
2023/08/18 14:53:07;;;;;;;;;;;;;;;;;;5025264;28;20029;-79
2023/08/18 14:55:33;;;;;;;;;;;;;;;;;;5022133;28;19921;-79
2023/08/18 14:57:58;;;;;;;;;;;;;;;;;;5024177;28;19928;-78
2023/08/18 15:00:24;;;;;;;;;;;;;;;;;;5035971;28;20405;-79
2023/08/18 15:02:51;;;;;;;;;;;;;;;;;;5034224;28;20266;-79
2023/08/18 15:05:17;;;;;;;;;;;;;;;;;;5031307;28;19921;-79
2023/08/18 15:07:43;;;;;;;;;;;;;;;;;;5037069;28;19921;-79
2023/08/18 15:10:09;;;;;;;;;;;;;;;;;;5022348;28;19921;-79
2023/08/18 15:12:35;;;;;;;;;;;;;;;;;;5036449;28;20277;-79
2023/08/18 15:15:01;;;;;;;;;;;;;;;;;;5036331;28;19983;-80
2023/08/18 15:17:27;;;;;;;;;;;;;;;;;;5028905;28;20441;-79
2023/08/18 15:19:53;;;;;;;;;;;;;;;;;;5030452;28;19927;-79
2023/08/18 15:22:19;;;;;;;;;;;;;;;;;;5034472;28;19920;-79
2023/08/18 15:24:45;;;;;;;;;;;;;;;;;;5036059;28;19927;-82
2023/08/18 15:27:11;;;;;;;;;;;;;;;;;;5033576;28;19963;-82
2023/08/18 15:29:37;;;;;;;;;;;;;;;;;;5035926;28;19960;-82
2023/08/18 15:32:03;;;;;;;;;;;;;;;;;;5036387;28;19974;-82
2023/08/18 15:34:29;;;;;;;;;;;;;;;;;;5035902;28;20469;-81
2023/08/18 15:36:55;;;;;;;;;;;;;;;;;;5030460;28;20137;-81
2023/08/18 15:39:22;;;;;;;;;;;;;;;;;;5030644;28;19921;-81
2023/08/18 15:41:48;;;;;;;;;;;;;;;;;;5036138;28;19921;-79
2023/08/18 15:44:14;;;;;;;;;;;;;;;;;;5034565;28;19955;-79
2023/08/18 15:46:40;;;;;;;;;;;;;;;;;;5034351;28;19920;-79
2023/08/18 15:49:06;;;;;;;;;;;;;;;;;;5035055;28;19924;-80
2023/08/18 15:51:32;;;;;;;;;;;;;;;;;;5015589;28;19921;-79
2023/08/18 15:53:59;;;;;;;;;;;;;;;;;;5016311;28;20373;-79
2023/08/18 15:56:25;;;;;;;;;;;;;;;;;;5030264;28;20031;-79
2023/08/18 15:58:51;;;;;;;;;;;;;;;;;;5010913;28;20386;-79
2023/08/18 16:01:17;;;;;;;;;;;;;;;;;;5033304;28;20286;-79
2023/08/18 16:03:43;;;;;;;;;;;;;;;;;;5018191;28;19920;-78
2023/08/18 16:06:09;;;;;;;;;;;;;;;;;;5035954;28;19921;-79
2023/08/18 16:08:35;;;;;;;;;;;;;;;;;;5035414;28;19920;-79
2023/08/18 16:11:01;;;;;;;;;;;;;;;;;;5035997;28;20286;-78
2023/08/18 16:13:27;;;;;;;;;;;;;;;;;;5033458;28;19924;-80
2023/08/18 16:15:53;;;;;;;;;;;;;;;;;;5035241;28;19920;-79
2023/08/18 16:18:19;;;;;;;;;;;;;;;;;;5027605;28;19921;-79
2023/08/18 16:20:45;;;;;;;;;;;;;;;;;;5035504;28;19928;-80
2023/08/18 16:23:11;;;;;;;;;;;;;;;;;;5035366;28;19950;-80
2023/08/18 16:25:37;;;;;;;;;;;;;;;;;;5034843;28;20365;-80
2023/08/18 16:28:03;;;;;;;;;;;;;;;;;;5033878;28;19943;-80
2023/08/18 16:30:28;;;;;;;;;;;;;;;;;;5031843;28;19928;-80
2023/08/18 16:32:54;;;;;;;;;;;;;;;;;;5033806;28;19929;-80
2023/08/18 16:35:20;;;;;;;;;;;;;;;;;;5038982;28;19969;-78
2023/08/18 16:37:46;;;;;;;;;;;;;;;;;;5037863;28;19920;-80